^^

..:: Storico WU ::..




Lo storico viene creato da WUnderground con i dati che la stazione Meteomincio invia al loro server. L' aggiornamento viene fatto ogni 5 minuti circa, tuttavia possono esserci intervalli pi¨ ampi a causa di errori, interruzioni di servizio o problemi nell' invio tramite FTP.


Storico stazione MeteoMincio
Giorno Sommario per Novembre 09, 2022 Unità:  Inglese    Metrico   Entrambi
Giorno Settimana Mese Anno
  Max: Min: Media:
Temperatura: 56.5 °F 51.3 °F 53.6 °F
Dew Point: 53.2 °F 48.7 °F 51.4 °F
Umidità: 96% 89% 93%
Velocità vento: 3.2mph 0mph 0.6mph
Raffica: 4mph - -
Direzione- - SW
Pressione: 30.1 in 30.1 in -
Precipitazioni: 0.06 in    
 
 
Tabulato Dati per Novembre 09, 2022
Ora Temperatura Dew Point Pressione Direzione Velocità vento Raffica Umidità Intensità pioggia (oraria) Info solare Situazione
00:00 51.4 °F 48.9 °F 30.1 in Calm     91% 0 in 0 W/m2
00:06 51.6 °F 49.1 °F 30.1 in Calm     91% 0 in 0 W/m2
00:13 51.6 °F 49.1 °F 30.1 in NE 0.7 mph 2.3 mph 91% 0 in 0 W/m2
00:19 51.6 °F 49.1 °F 30.1 in NE 0.4 mph 2.3 mph 91% 0 in 0 W/m2
00:24 51.4 °F 48.9 °F 30.1 in Calm   2 mph 91% 0 in 0 W/m2
00:28 51.4 °F 48.9 °F 30.1 in Calm     91% 0 in 0 W/m2
00:33 51.6 °F 49.1 °F 30.1 in Calm     91% 0 in 0 W/m2
00:39 51.6 °F 49.1 °F 30.1 in Calm     91% 0 in 0 W/m2
00:41 51.6 °F 49.1 °F 30.1 in Calm     91% 0 in 0 W/m2
00:49 51.4 °F 48.9 °F 30.1 in Calm     91% 0 in 0 W/m2
00:54 51.3 °F 48.7 °F 30.1 in Calm     91% 0 in 0 W/m2
00:59 51.3 °F 48.7 °F 30.1 in West 0.1 mph 2.3 mph 91% 0 in 0 W/m2
01:00 51.4 °F 48.7 °F 30.1 in Calm   2 mph 91% 0 in 0 W/m2
01:09 51.3 °F 48.7 °F 30.1 in West 0.5 mph 2.3 mph 91% 0 in 0 W/m2
01:14 51.3 °F 48.7 °F 30.1 in West 0.7 mph 2.3 mph 91% 0 in 0 W/m2
01:18 51.3 °F 48.7 °F 30.1 in WNW 0.7 mph 2.3 mph 91% 0 in 0 W/m2
01:22 51.3 °F 48.7 °F 30.1 in WNW 0.7 mph 2.3 mph 91% 0 in 0 W/m2
01:27 51.3 °F 48.9 °F 30.1 in WNW 0.5 mph 2.3 mph 91% 0 in 0 W/m2
01:34 51.4 °F 49.1 °F 30.1 in West 0.4 mph 2.3 mph 91% 0 in 0 W/m2
01:38 51.4 °F 48.9 °F 30.1 in West 0.7 mph 2.3 mph 91% 0 in 0 W/m2
01:44 51.4 °F 48.9 °F 30.1 in West 0.7 mph 2.3 mph 91% 0 in 0 W/m2
01:49 51.4 °F 48.9 °F 30.1 in West 0.6 mph 2.3 mph 91% 0 in 0 W/m2
01:53 51.4 °F 48.9 °F 30.1 in West 0.2 mph 2.3 mph 91% 0 in 0 W/m2
01:59 51.6 °F 49.1 °F 30.1 in West 0.1 mph 2 mph 91% 0 in 0 W/m2
02:04 51.6 °F 49.1 °F 30.1 in Calm     91% 0 in 0 W/m2
02:09 51.6 °F 49.1 °F 30.1 in Calm     91% 0 in 0 W/m2
02:13 51.6 °F 49.1 °F 30.1 in Calm     91% 0 in 0 W/m2
02:18 51.6 °F 49.1 °F 30.1 in Calm     91% 0 in 0 W/m2
02:23 51.6 °F 49.3 °F 30.1 in Calm     91% 0 in 0 W/m2
02:28 51.8 °F 49.3 °F 30.1 in Calm   1 mph 91% 0 in 0 W/m2
02:34 51.8 °F 49.3 °F 30.1 in Calm   1.2 mph 91% 0 in 0 W/m2
02:36 51.8 °F 49.3 °F 30.1 in Calm   1.2 mph 91% 0 in 0 W/m2
02:41 51.8 °F 49.3 °F 30.1 in Calm   1.2 mph 91% 0 in 0 W/m2
02:49 51.8 °F 49.1 °F 30.1 in SSW 0.2 mph 1.2 mph 90.3% 0 in 0 W/m2
02:54 52 °F 49.1 °F 30.1 in SSW 0.4 mph 1.2 mph 90% 0 in 0 W/m2
02:59 52 °F 49.1 °F 30.1 in SSE 0.6 mph 1.2 mph 90% 0 in 0 W/m2
03:04 52 °F 49.1 °F 30.1 in SE 0.7 mph 1.2 mph 90% 0 in 0 W/m2
03:07 52 °F 49.3 °F 30.1 in SSW 0.8 mph 1.2 mph 90% 0 in 0 W/m2
03:14 52.2 °F 49.3 °F 30.1 in SSW 0.7 mph 1.2 mph 89.7% 0 in 0 W/m2
03:18 52.3 °F 49.3 °F 30.1 in SSW 0.6 mph 1.2 mph 89% 0 in 0 W/m2
03:24 52.3 °F 49.3 °F 30.1 in SSW 0.6 mph 2 mph 89% 0 in 0 W/m2
03:29 52.3 °F 49.3 °F 30.1 in SSW 1.5 mph 3.5 mph 89% 0 in 0 W/m2
03:34 52.3 °F 49.3 °F 30.1 in South 1.7 mph 3.5 mph 89% 0 in 0 W/m2
03:38 52.3 °F 49.3 °F 30.1 in SSE 0.9 mph 3.5 mph 89% 0 in 0 W/m2
03:44 52.3 °F 49.3 °F 30.1 in SSW 0.6 mph 3 mph 89% 0 in 0 W/m2
03:48 52.3 °F 49.3 °F 30.1 in SSW 0.9 mph 3.5 mph 89% 0 in 0 W/m2
03:54 52.3 °F 49.3 °F 30.1 in SSW 0.6 mph 2.3 mph 89% 0 in 0 W/m2
03:58 52.3 °F 49.5 °F 30.1 in South 0.1 mph 2 mph 89.5% 0 in 0 W/m2
04:04 52.3 °F 49.5 °F 30.1 in SW 0.2 mph 1.2 mph 90% 0 in 0 W/m2
04:09 52.3 °F 49.5 °F 30.1 in SW 0.3 mph 2 mph 90% 0 in 0 W/m2
04:10 52.2 °F 49.5 °F 30.1 in SSW 0.4 mph 2.3 mph 90% 0 in 0 W/m2
04:17 52.2 °F 49.5 °F 30.1 in SSW 0.4 mph 2.3 mph 90% 0 in 0 W/m2
04:24 52.2 °F 49.5 °F 30.1 in SSW 0.5 mph 2.3 mph 90.5% 0 in 0 W/m2
04:29 52.2 °F 49.8 °F 30.1 in South 0.7 mph 2.3 mph 91.4% 0 in 0 W/m2
04:34 52.2 °F 49.8 °F 30.1 in South 0.7 mph 2.3 mph 91.9% 0 in 0 W/m2
04:35 52 °F 49.6 °F 30.1 in South 0.6 mph 2.3 mph 91.9% 0 in 0 W/m2
04:44 52 °F 49.6 °F 30.1 in South 0.6 mph 2.3 mph 92% 0.01 in 0 W/m2
04:45 52 °F 49.6 °F 30.1 in South 0.3 mph 1.2 mph 92% 0.01 in 0 W/m2
04:54 52 °F 50 °F 30.1 in Calm   1.2 mph 93% 0.01 in 0 W/m2
04:55 52 °F 50 °F 30.1 in Calm     93% 0.01 in 0 W/m2
05:00 52 °F 50 °F 30.1 in Calm     93% 0.01 in 0 W/m2
05:09 52 °F 50.2 °F 30.1 in Calm     93.8% 0.01 in 0 W/m2
05:14 52 °F 50.4 °F 30.1 in Calm     94% 0.01 in 0 W/m2
05:18 52 °F 50.2 °F 30.1 in Calm     94% 0.01 in 0 W/m2
05:23 51.8 °F 50.2 °F 30.1 in Calm     94% 0.02 in 0 W/m2
05:28 51.8 °F 50.2 °F 30.1 in Calm     94% 0.02 in 0 W/m2
05:34 51.8 °F 50 °F 30.1 in ESE 0.1 mph 1 mph 94% 0.02 in 0 W/m2
05:38 51.6 °F 50 °F 30.1 in ESE 0.5 mph 1.2 mph 94% 0.02 in 0 W/m2
05:44 51.6 °F 49.8 °F 30.1 in ESE 0.3 mph 1.2 mph 94% 0.02 in 0 W/m2
05:49 51.4 °F 49.8 °F 30.1 in Calm     94% 0.02 in 0 W/m2
05:53 51.4 °F 49.8 °F 30.1 in Calm     94% 0.02 in 0 W/m2
05:59 51.6 °F 50 °F 30.1 in Calm     94.3% 0.03 in 0 W/m2
06:04 51.6 °F 50.2 °F 30.1 in Calm     95% 0.03 in 0 W/m2
06:08 51.6 °F 50.2 °F 30.1 in Calm     95% 0.03 in 0 W/m2
06:13 51.6 °F 50.2 °F 30.1 in Calm     95% 0.03 in 0 W/m2
06:18 51.6 °F 50.2 °F 30.1 in Calm     95% 0.03 in 0 W/m2
06:23 51.6 °F 50.2 °F 30.1 in Calm     95% 0.03 in 0 W/m2
06:28 51.6 °F 50.4 °F 30.1 in Calm     95% 0.03 in 0 W/m2
06:34 51.6 °F 50.4 °F 30.1 in Calm     95% 0.03 in 0 W/m2
06:39 51.6 °F 50.2 °F 30.1 in Calm     95% 0.03 in 0 W/m2
06:44 51.6 °F 50.2 °F 30.1 in Calm     95% 0.03 in 0 W/m2
06:49 51.6 °F 50.4 °F 30.1 in Calm     95% 0.03 in 0 W/m2
06:54 51.6 °F 50.4 °F 30.1 in Calm     95% 0.03 in 0 W/m2
06:58 51.8 °F 50.4 °F 30.1 in South 0.2 mph 3.5 mph 95% 0.03 in 0 W/m2
07:04 51.8 °F 50.4 °F 30.1 in SSW 0.6 mph 3.5 mph 95% 0.03 in 0 W/m2
07:09 51.8 °F 50.4 °F 30.1 in SSW 1.3 mph 3.5 mph 95% 0.02 in 0 W/m2
07:13 51.8 °F 50.5 °F 30.1 in SSW 1.2 mph 3.5 mph 95% 0.02 in 0 W/m2
07:18 51.8 °F 50.4 °F 30.1 in South 0.2 mph 2.3 mph 95% 0.02 in 0 W/m2
07:24 52 °F 50.5 °F 30.1 in Calm   2 mph 95.1% 0.02 in 0 W/m2
07:29 52 °F 50.5 °F 30.1 in South 0.1 mph 1.2 mph 95.3% 0.02 in 0 W/m2
07:31 52 °F 50.7 °F 30.1 in South 0.2 mph 1.2 mph 96% 0.02 in 0 W/m2
07:39 52 °F 50.7 °F 30.1 in South 0.2 mph 1.2 mph 96% 0.02 in 5 W/m2
07:42 52 °F 50.7 °F 30.1 in SSW 0.2 mph 1.2 mph 96% 0.02 in 5 W/m2
07:48 52 °F 50.7 °F 30.1 in SSW 0.2 mph 1.2 mph 96% 0.02 in 5 W/m2
07:53 52 °F 50.7 °F 30.1 in SSW 0.2 mph 1.2 mph 96% 0.02 in 5 W/m2
07:59 52 °F 50.9 °F 30.1 in SW 0.2 mph 2.3 mph 96% 0.01 in 5 W/m2
08:03 52.2 °F 50.9 °F 30.1 in SW 0.5 mph 2.3 mph 96% 0.01 in 5 W/m2
08:09 52.2 °F 51.1 °F 30.1 in SW 0.5 mph 2.3 mph 96% 0.01 in 11 W/m2
08:14 52.2 °F 51.1 °F 30.1 in SW 0.4 mph 2.3 mph 96% 0.01 in 11 W/m2
08:19 52.2 °F 51.1 °F 30.1 in SW 0.4 mph 2.3 mph 96% 0.01 in 11 W/m2
08:21 52.2 °F 51.1 °F 30.1 in SSW 0.5 mph 2.3 mph 96% 0.01 in 11 W/m2
08:29 52.2 °F 51.1 °F 30.1 in SSW 0.7 mph 2.3 mph 96% 0.01 in 11 W/m2
08:34 52.2 °F 51.1 °F 30.1 in SSW 0.7 mph 2.3 mph 96% 0.01 in 9 W/m2
08:39 52.2 °F 51.1 °F 30.1 in SSW 0.6 mph 2.3 mph 96% 0.01 in 14 W/m2
08:44 52.3 °F 51.3 °F 30.1 in SSW 0.6 mph 2.3 mph 96% 0.01 in 14 W/m2
08:49 52.3 °F 51.3 °F 30.1 in South 0.6 mph 2.3 mph 96% 0.01 in 19 W/m2
08:54 52.2 °F 51.1 °F 30.1 in SSE 0.5 mph 2 mph 96% 0.01 in 25 W/m2
08:57 52.3 °F 51.3 °F 30.1 in SSE 0.4 mph 1.2 mph 96% 0.01 in 25 W/m2
09:04 52.3 °F 51.3 °F 30.1 in SSE 0.4 mph 2.3 mph 96% 0.01 in 26 W/m2
09:09 52.3 °F 51.3 °F 30.1 in SSE 0.4 mph 2.3 mph 96% 0.01 in 26 W/m2
09:14 52.3 °F 51.3 °F 30.1 in SSE 0.5 mph 2.3 mph 96% 0.01 in 21 W/m2
09:17 52.5 °F 51.4 °F 30.1 in South 0.6 mph 2.3 mph 96% 0.01 in 21 W/m2
09:23 52.5 °F 51.4 °F 30.1 in South 0.8 mph 2.3 mph 96% 0 in 21 W/m2
09:29 52.5 °F 51.4 °F 30.1 in South 1.1 mph 2.3 mph 96% 0 in 28 W/m2
09:34 52.5 °F 51.4 °F 30.1 in South 1.3 mph 2.3 mph 96% 0 in 28 W/m2
09:39 52.5 °F 51.4 °F 30.1 in South 1.4 mph 2.3 mph 96% 0 in 32 W/m2
09:41 52.5 °F 51.4 °F 30.1 in South 1.6 mph 2.3 mph 96% 0 in 32 W/m2
09:48 52.5 °F 51.4 °F 30.1 in South 1.4 mph 2.3 mph 96% 0 in 32 W/m2
09:54 52.5 °F 51.4 °F 30.1 in SSW 1.2 mph 2.3 mph 96% 0 in 25 W/m2
09:59 52.7 °F 51.6 °F 30.1 in SSW 1.3 mph 2.3 mph 96% 0 in 30 W/m2
10:04 52.7 °F 51.6 °F 30.1 in SSW 1.4 mph 2.3 mph 96% 0 in 30 W/m2
10:07 52.7 °F 51.6 °F 30.1 in SSW 1.4 mph 2.3 mph 96% 0 in 30 W/m2
10:14 52.7 °F 51.6 °F 30.1 in South 1.4 mph 3.5 mph 96% 0 in 33 W/m2
10:19 52.9 °F 51.6 °F 30.1 in SSW 1.4 mph 3.5 mph 95.6% 0 in 39 W/m2
10:20 52.9 °F 51.8 °F 30.1 in SSW 1 mph 3 mph 96% 0 in 39 W/m2
10:28 52.9 °F 51.6 °F 30.1 in SSW 0.5 mph 3.5 mph 95% 0 in 69 W/m2
10:34 53.1 °F 52 °F 30.1 in Calm   3 mph 95.6% 0 in 91 W/m2
10:36 53.2 °F 52.2 °F 30.1 in Calm     95.9% 0 in 91 W/m2
10:42 53.2 °F 52.2 °F 30.1 in Calm     96% 0 in 91 W/m2
10:49 53.4 °F 52 °F 30.1 in Calm     95.4% 0 in 91 W/m2
10:54 53.4 °F 52 °F 30.1 in Calm   1 mph 95% 0 in 69 W/m2
10:58 53.4 °F 52.2 °F 30.1 in SW 0.1 mph 1.2 mph 95% 0 in 91 W/m2
11:04 53.6 °F 52.2 °F 30.1 in SW 0.1 mph 1.2 mph 95% 0 in 98 W/m2
11:07 53.8 °F 52.3 °F 30.1 in SW 0.1 mph 1.2 mph 95% 0 in 98 W/m2
11:11 54 °F 52.2 °F 30.1 in West 0.1 mph 1.2 mph 94% 0 in 120 W/m2
11:18 54 °F 52.3 °F 30.1 in West 0.1 mph 1.2 mph 94% 0 in 128 W/m2
11:24 54.3 °F 52.7 °F 30.1 in West 0.1 mph 1.2 mph 94% 0 in 142 W/m2
11:29 54.5 °F 52.5 °F 30.1 in WNW 0.2 mph 1.2 mph 93.4% 0 in 142 W/m2
11:33 54.5 °F 52.5 °F 30.1 in West 0.3 mph 1.2 mph 93% 0 in 139 W/m2
11:39 54.9 °F 52.9 °F 30.1 in WSW 0.4 mph 1.2 mph 93% 0 in 116 W/m2
11:41 54.9 °F 52.9 °F 30.1 in WSW 0.6 mph 1.2 mph 93.1% 0 in 104 W/m2
11:49 54.9 °F 52.9 °F 30.1 in WSW 0.6 mph 1.2 mph 93% 0 in 104 W/m2
11:53 55.2 °F 52.9 °F 30.1 in West 0.6 mph 2.3 mph 92% 0 in 149 W/m2
11:58 55.2 °F 52.9 °F 30.1 in West 0.7 mph 2.3 mph 91.6% 0 in 149 W/m2
12:03 55.4 °F 53.1 °F 30.1 in West 1.1 mph 3 mph 91.9% 0 in 139 W/m2
12:09 55.4 °F 53.1 °F 30.1 in West 1.2 mph 3 mph 91.9% 0 in 139 W/m2
12:13 55.6 °F 53.1 °F 30.1 in West 0.7 mph 2.3 mph 91.5% 0 in 139 W/m2
12:19 55.6 °F 53.1 °F 30.1 in West 1.6 mph 4 mph 91% 0 in 139 W/m2
12:24 55.8 °F 53.1 °F 30.1 in West 2.5 mph 4 mph 91% 0 in 97 W/m2
12:29 55.8 °F 53.1 °F 30.1 in West 2.2 mph 4 mph 90.7% 0 in 74 W/m2
12:34 55.8 °F 52.9 °F 30.1 in West 2 mph 4 mph 90% 0 in 72 W/m2
12:39 55.9 °F 52.9 °F 30.1 in West 2.5 mph 4 mph 90% 0 in 62 W/m2
12:44 55.8 °F 52.9 °F 30.1 in WNW 2.6 mph 4 mph 90% 0 in 58 W/m2
12:47 55.8 °F 52.9 °F 30.1 in NW 2.5 mph 3.5 mph 90% 0 in 58 W/m2
12:54 55.8 °F 52.9 °F 30.1 in WSW 2.3 mph 4 mph 90% 0 in 69 W/m2
12:59 55.9 °F 53.1 °F 30.1 in WSW 1.5 mph 4 mph 90.6% 0 in 69 W/m2
13:04 55.9 °F 53.1 °F 30.1 in West 1.6 mph 3.5 mph 90.4% 0 in 72 W/m2
13:09 55.9 °F 53.1 °F 30.1 in WNW 1.9 mph 3.5 mph 90% 0 in 72 W/m2
13:13 55.9 °F 53.1 °F 30.1 in West 1.7 mph 3.5 mph 90% 0 in 72 W/m2
13:19 55.9 °F 53.1 °F 30.1 in WSW 1.4 mph 3.5 mph 89.7% 0 in 60 W/m2
13:23 55.9 °F 53.1 °F 30.1 in West 1.5 mph 3 mph 89.9% 0 in 39 W/m2
13:29 55.9 °F 53.1 °F 30.1 in West 2.4 mph 4 mph 90% 0 in 40 W/m2
13:34 55.9 °F 53.1 °F 30.1 in West 3.2 mph 4 mph 90% 0 in 47 W/m2
13:38 55.9 °F 53.1 °F 30.1 in West 2.6 mph 4 mph 90% 0 in 47 W/m2
13:44 55.9 °F 53.1 °F 30.1 in WNW 2.5 mph 4 mph 90% 0 in 40 W/m2
13:49 55.9 °F 53.1 °F 30.1 in WNW 2.4 mph 4 mph 90% 0 in 40 W/m2
13:54 55.9 °F 53.1 °F 30.1 in West 2.2 mph 3.5 mph 90% 0 in 56 W/m2
13:58 55.8 °F 52.9 °F 30.1 in WNW 1.6 mph 3.5 mph 90% 0 in 56 W/m2
14:02 55.9 °F 53.2 °F 30.1 in WNW 1.2 mph 3.5 mph 91% 0 in 69 W/m2
14:08 55.8 °F 53.2 °F 30.1 in WNW 0.5 mph 3 mph 91% 0 in 69 W/m2
14:14 55.8 °F 53.1 °F 30.1 in NW 0.5 mph 2.3 mph 90.4% 0 in 60 W/m2
14:19 55.9 °F 52.9 °F 30.1 in NW 0.9 mph 2.3 mph 90% 0 in 32 W/m2
14:23 55.9 °F 53.2 °F 30.1 in NNW 0.6 mph 2.3 mph 90.5% 0 in 42 W/m2
14:29 55.8 °F 53.1 °F 30.1 in North 0.3 mph 2.3 mph 90.4% 0 in 40 W/m2
14:33 55.9 °F 53.1 °F 30.1 in North 0.1 mph 1 mph 90% 0 in 46 W/m2
14:38 56.1 °F 53.1 °F 30.1 in WNW 0.4 mph 2 mph 90% 0 in 46 W/m2
14:43 55.9 °F 52.9 °F 30.1 in WNW 0.9 mph 2.3 mph 89.5% 0 in 56 W/m2
14:49 56.1 °F 52.9 °F 30.1 in WNW 0.6 mph 1.2 mph 89% 0 in 56 W/m2
14:54 56.3 °F 53.1 °F 30.1 in West 0.4 mph 2 mph 89% 0 in 37 W/m2
14:59 56.3 °F 53.1 °F 30.1 in West 1 mph 2.3 mph 89% 0 in 26 W/m2
15:04 56.3 °F 53.1 °F 30.1 in WNW 1.1 mph 2.3 mph 89% 0 in 26 W/m2
15:08 56.3 °F 53.1 °F 30.1 in WNW 0.9 mph 2.3 mph 89% 0 in 25 W/m2
15:14 56.3 °F 53.1 °F 30.1 in NW 0.1 mph 2.3 mph 89% 0 in 23 W/m2
15:19 56.3 °F 53.1 °F 30.1 in WSW 0.2 mph 2 mph 89% 0 in 30 W/m2
15:24 56.3 °F 53.2 °F 30.1 in WSW 0.9 mph 2.3 mph 89.1% 0 in 32 W/m2
15:29 56.5 °F 53.2 °F 30.1 in WSW 1 mph 2.3 mph 89% 0 in 30 W/m2
15:33 56.3 °F 53.1 °F 30.1 in WSW 1 mph 2.3 mph 89% 0 in 30 W/m2
15:38 56.3 °F 53.1 °F 30.1 in SW 1.2 mph 2.3 mph 89% 0 in 16 W/m2
15:44 56.3 °F 53.1 °F 30.1 in SW 1.1 mph 2.3 mph 89% 0 in 11 W/m2
15:49 56.3 °F 53.1 °F 30.1 in SW 0.5 mph 2 mph 89% 0 in 5 W/m2
15:54 56.3 °F 53.2 °F 30.1 in SW 0.1 mph 1.2 mph 89.5% 0 in 0 W/m2
15:59 56.1 °F 53.2 °F 30.1 in Calm     90% 0 in 0 W/m2
16:03 55.9 °F 53.1 °F 30.1 in Calm     90% 0 in 0 W/m2
16:08 55.9 °F 53.1 °F 30.1 in Calm     90% 0 in 0 W/m2
16:13 55.9 °F 53.1 °F 30.1 in Calm     90.5% 0 in 0 W/m2
16:19 55.8 °F 53.2 °F 30.1 in Calm     91.5% 0 in 0 W/m2
16:24 55.6 °F 53.2 °F 30.1 in Calm     92% 0 in 5 W/m2
16:29 55.4 °F 53.1 °F 30.1 in Calm     92% 0 in 7 W/m2
16:34 55.2 °F 53.1 °F 30.1 in Calm     92.5% 0 in 7 W/m2
16:38 55.2 °F 53.2 °F 30.1 in Calm     93% 0 in 5 W/m2
16:44 55.2 °F 53.1 °F 30.1 in Calm     93% 0 in 0 W/m2
16:49 55 °F 53.1 °F 30.1 in Calm     93% 0 in 0 W/m2
16:53 55 °F 53.1 °F 30.1 in Calm     93% 0 in 0 W/m2
16:59 55 °F 53.1 °F 30.1 in Calm     93% 0 in 0 W/m2
17:04 55 °F 53.1 °F 30.1 in Calm     93% 0 in 0 W/m2
17:08 55 °F 53.1 °F 30.1 in WNW 0.2 mph 2 mph 93% 0 in 0 W/m2
17:13 55 °F 53.1 °F 30.1 in WNW 0.7 mph 2.3 mph 93% 0 in 0 W/m2
17:19 55 °F 53.1 °F 30.1 in WNW 0.3 mph 2 mph 93% 0 in 0 W/m2
17:24 55 °F 53.1 °F 30.1 in WNW 0.1 mph 1 mph 93% 0 in 0 W/m2
17:29 55 °F 53.1 °F 30.1 in WNW 0.2 mph 1.2 mph 93% 0 in 0 W/m2
17:34 55 °F 53.1 °F 30.1 in NW 0.1 mph 1.2 mph 93% 0 in 0 W/m2
17:39 54.9 °F 52.9 °F 30.1 in NW 0.1 mph 1.2 mph 93% 0 in 0 W/m2
17:44 54.9 °F 52.9 °F 30.1 in NW 0.1 mph 1.2 mph 93% 0 in 0 W/m2
17:49 54.7 °F 52.7 °F 30.1 in North 0.1 mph 1.2 mph 93% 0 in 0 W/m2
17:53 54.7 °F 52.7 °F 30.1 in North 0.1 mph 1.2 mph 93% 0 in 0 W/m2
17:59 54.7 °F 52.5 °F 30.1 in NNE 0.2 mph 1.2 mph 93% 0 in 0 W/m2
18:04 54.5 °F 52.5 °F 30.1 in NE 1.1 mph 2.3 mph 93% 0 in 0 W/m2
18:09 54.5 °F 52.5 °F 30.1 in ENE 1 mph 2.3 mph 93% 0 in 0 W/m2
18:14 54.5 °F 52.7 °F 30.1 in ENE 0.3 mph 2.3 mph 93.6% 0 in 0 W/m2
18:19 54.5 °F 52.7 °F 30.1 in South 0.2 mph 2 mph 93.9% 0 in 0 W/m2
18:23 54.5 °F 52.5 °F 30.1 in SE 1.2 mph 3 mph 93% 0 in 0 W/m2
18:28 54.3 °F 52.3 °F 30.1 in East 1.9 mph 3.5 mph 93% 0 in 0 W/m2
18:33 54.1 °F 52.3 °F 30.1 in ENE 1.6 mph 3.5 mph 93.5% 0 in 0 W/m2
18:38 54.1 °F 52.5 °F 30.1 in ENE 0.7 mph 2.3 mph 94% 0 in 0 W/m2
18:43 54.3 °F 52.5 °F 30.1 in ENE 0.2 mph 1.2 mph 94% 0 in 0 W/m2
18:49 54.3 °F 52.5 °F 30.1 in Calm     94% 0 in 0 W/m2
18:54 54.3 °F 52.5 °F 30.1 in Calm     94% 0 in 0 W/m2
18:59 54.3 °F 52.7 °F 30.1 in Calm     94% 0 in 0 W/m2
19:03 54.3 °F 52.7 °F 30.1 in Calm     94% 0 in 0 W/m2
19:08 54.3 °F 52.7 °F 30.1 in Calm     94% 0 in 0 W/m2
19:14 54.3 °F 52.7 °F 30.1 in ENE 0.1 mph 1 mph 94% 0 in 0 W/m2
19:18 54.3 °F 52.5 °F 30.1 in ENE 0.4 mph 1.2 mph 94% 0 in 0 W/m2
19:24 54.3 °F 52.7 °F 30.1 in ENE 0.1 mph 1.2 mph 94% 0 in 0 W/m2
19:28 54.3 °F 52.5 °F 30.1 in Calm   1 mph 94% 0 in 0 W/m2
19:34 54.3 °F 52.7 °F 30.1 in Calm   1.2 mph 94% 0 in 0 W/m2
19:39 54.3 °F 52.7 °F 30.1 in ENE 0.1 mph 1.2 mph 94% 0 in 0 W/m2
19:43 54.3 °F 52.5 °F 30.1 in ENE 0.6 mph 2 mph 94% 0 in 0 W/m2
19:49 54.3 °F 52.5 °F 30.1 in ENE 0.9 mph 2.3 mph 94% 0 in 0 W/m2
19:54 54.3 °F 52.5 °F 30.1 in WNW 0.6 mph 2.3 mph 94% 0 in 0 W/m2
19:58 54.1 °F 52.5 °F 30.1 in Calm   2 mph 94% 0 in 0 W/m2
20:02 54.1 °F 52.5 °F 30.1 in WNW 0.1 mph 1.2 mph 94% 0 in 0 W/m2
20:08 54.1 °F 52.5 °F 30.1 in WNW 0.2 mph 1.2 mph 94% 0 in 0 W/m2
20:14 54.3 °F 52.5 °F 30.1 in NW 0.4 mph 2.3 mph 94% 0 in 0 W/m2
20:19 54.3 °F 52.5 °F 30.1 in NW 1.1 mph 2.3 mph 94% 0 in 0 W/m2
20:24 54.3 °F 52.5 °F 30.1 in NW 1.5 mph 2.3 mph 94% 0.01 in 0 W/m2
20:29 54.3 °F 52.5 °F 30.1 in NW 0.7 mph 2.3 mph 94% 0.01 in 0 W/m2
20:33 54.3 °F 52.5 °F 30.1 in NW 0.4 mph 2.3 mph 94% 0.01 in 0 W/m2
20:39 54.3 °F 52.5 °F 30.1 in WNW 0.2 mph 3 mph 94% 0.02 in 0 W/m2
20:43 54.1 °F 52.5 °F 30.1 in NW 1.5 mph 3.5 mph 94% 0.02 in 0 W/m2
20:49 54.1 °F 52.5 °F 30.1 in NNW 0.9 mph 3.5 mph 94% 0.02 in 0 W/m2
20:53 54.1 °F 52.5 °F 30.1 in WNW 0.8 mph 3 mph 94% 0.02 in 0 W/m2
20:58 54 °F 52.3 °F 30.1 in WNW 1.9 mph 3.5 mph 94% 0.02 in 0 W/m2
21:03 54 °F 52.3 °F 30.1 in WNW 1.6 mph 3.5 mph 94% 0.02 in 0 W/m2
21:08 54 °F 52.3 °F 30.1 in NW 1.2 mph 3.5 mph 94% 0.02 in 0 W/m2
21:13 54 °F 52.3 °F 30.1 in WNW 0.3 mph 3.5 mph 94% 0.02 in 0 W/m2
21:19 54 °F 52.3 °F 30.1 in Calm     94% 0.02 in 0 W/m2
21:24 54 °F 52.2 °F 30.1 in Calm     94% 0.02 in 0 W/m2
21:28 54 °F 52.3 °F 30.1 in Calm     94.5% 0.02 in 0 W/m2
21:34 53.8 °F 52.5 °F 30.1 in Calm     95% 0.02 in 0 W/m2
21:38 53.8 °F 52.3 °F 30.1 in North 0.4 mph 2 mph 95% 0.02 in 0 W/m2
21:43 53.8 °F 52.3 °F 30.1 in NE 1.4 mph 3 mph 95% 0.02 in 0 W/m2
21:46 53.8 °F 52.3 °F 30.1 in NE 1.7 mph 3.5 mph 95% 0.02 in 0 W/m2
21:54 53.8 °F 52.3 °F 30.1 in NE 0.9 mph 3.5 mph 95% 0.02 in 0 W/m2
21:59 53.8 °F 52.3 °F 30.1 in NE 0.5 mph 1.2 mph 95% 0.02 in 0 W/m2
22:03 53.8 °F 52.3 °F 30.1 in NE 0.1 mph 3 mph 95% 0.02 in 0 W/m2
22:08 53.8 °F 52.3 °F 30.1 in NE 0.1 mph 1.2 mph 95% 0.02 in 0 W/m2
22:12 53.8 °F 52.3 °F 30.1 in NE 0.1 mph 1.2 mph 95% 0.02 in 0 W/m2
22:18 53.8 °F 52.3 °F 30.1 in NE 0.1 mph 1.2 mph 95% 0.02 in 0 W/m2
22:23 53.8 °F 52.3 °F 30.1 in NE 0.2 mph 1.2 mph 95% 0.02 in 0 W/m2
22:29 53.8 °F 52.3 °F 30.1 in NE 0.1 mph 1.2 mph 95% 0.02 in 0 W/m2
22:34 53.8 °F 52.3 °F 30.1 in NE 0.1 mph 1.2 mph 95% 0.02 in 0 W/m2
22:38 53.8 °F 52.3 °F 30.1 in Calm   1.2 mph 95% 0.02 in 0 W/m2
22:44 53.8 °F 52.3 °F 30.1 in NNW 0.1 mph 1.2 mph 95% 0.01 in 0 W/m2
22:49 53.8 °F 52.3 °F 30.1 in NNW 0.1 mph 1.2 mph 95% 0.01 in 0 W/m2
22:52 53.8 °F 52.3 °F 30.1 in NNW 0.1 mph 1.2 mph 95% 0.01 in 0 W/m2
22:58 53.8 °F 52.3 °F 30.1 in NNW 0.3 mph 2.3 mph 95% 0.01 in 0 W/m2
23:03 53.8 °F 52.3 °F 30.1 in NNW 0.6 mph 2.3 mph 95% 0.01 in 0 W/m2
23:07 53.8 °F 52.3 °F 30.1 in NNW 0.9 mph 2.3 mph 95% 0.01 in 0 W/m2
23:14 53.8 °F 52.3 °F 30.1 in NNW 0.8 mph 2.3 mph 95% 0.01 in 0 W/m2
23:19 53.6 °F 52.2 °F 30.1 in NNW 0.1 mph 2.3 mph 95% 0.01 in 0 W/m2
23:24 53.6 °F 52.2 °F 30.1 in Calm   2 mph 95% 0.01 in 0 W/m2
23:29 53.6 °F 52.2 °F 30.1 in Calm     95% 0.01 in 0 W/m2
23:31 53.6 °F 52.2 °F 30.1 in Calm     95% 0.01 in 0 W/m2
23:38 53.6 °F 52.3 °F 30.1 in Calm     95.5% 0.01 in 0 W/m2
23:43 53.4 °F 52.3 °F 30.1 in Calm     96% 0.01 in 0 W/m2
23:47 53.4 °F 52.3 °F 30.1 in Calm     96% 0 in 0 W/m2
23:54 53.4 °F 52.3 °F 30.1 in Calm     96% 0 in 0 W/m2
23:56 53.4 °F 52.3 °F 30.1 in Calm     96% 0 in 0 W/m2
Stazione Meteorologica MeteoMincio Rivalta s/M (MN)
Con i complimenti di Weather Underground - 4 mb


METEO PILLOLE
Il luogo più piovoso della Terra
Lloro - Colombia
Ogni anno cadono in media 13300 millimetri di pioggia.

Do NOT follow this link or you will be banned from the site!